Cap Bianco — A8OK5 — position and weather

sailwx.info

Track history (hours):
 
Tides and Currents Weather Stations Pressure Air Temp Water Temp Dewpoint Dewpoint Depression Visibility Wind Speed Wind Dir Waves Ship Positions

Cap Bianco

Last reported at 2014-Oct-20 16:17 UTC. Time now 2014-Oct-20 18:06 UTC.
Position S 34°45' W 057°37'.

Length 222 m; draft 9 m.

Type: Cargo ship. MMSI: 636091489.

Date/timePositionNaut miles runAvg speedWind from/ knotsBaromVisibWave heightAir tempDewpointWater temp
2014-Oct-20 16:17S 34°45' W 057°37'911.6
2014-Oct-20 15:28S 34°44' W 057°49'1011.5
2014-Oct-20 14:33S 34°40' W 058°00'18 0.4
2014-Oct-18 14:33S 34°32' W 058°20'1111.1
2014-Oct-18 13:33S 34°38' W 058°09'8 8.3
2014-Oct-18 12:33S 34°41' W 057°59'6 6.0
2014-Oct-18 11:33S 34°43' W 057°52'1212.2
2014-Oct-18 10:33S 34°38' W 058°06'1211.2
2014-Oct-18 09:29S 34°38' W 058°21'0 0.2
2014-Oct-18 08:23S 34°38' W 058°21'0 0.0
2014-Oct-18 05:20S 34°38' W 058°21'0 0.0
2014-Oct-18 04:11S 34°38' W 058°21'0 0.0
2014-Oct-18 03:23S 34°38' W 058°21'0 0.0
2014-Oct-18 02:32S 34°38' W 058°21'0 0.0
2014-Oct-18 01:29S 34°38' W 058°21'0 0.0
2014-Oct-18 00:29S 34°38' W 058°21'0 0.0
2014-Oct-17 23:32S 34°38' W 058°21'0 0.0
2014-Oct-17 22:26S 34°38' W 058°21'0 0.0
2014-Oct-17 21:32S 34°38' W 058°21'0 0.0
2014-Oct-17 20:29S 34°38' W 058°21'0 0.0
2014-Oct-17 19:32S 34°38' W 058°21'1 0.5
2014-Oct-17 18:23S 34°38' W 058°20'8 9.3
2014-Oct-17 17:33S 34°37' W 058°11'1313.4
2014-Oct-17 16:33S 34°42' W 057°56'1010.1
2014-Oct-17 15:33S 34°44' W 057°44'5412.0
2014-Oct-17 11:04S 35°10' W 056°46'62414.9
2014-Oct-15 17:10S 27°55' W 048°01'23718.3
2014-Oct-15 04:12S 24°14' W 046°27'1015.9
2014-Oct-15 03:34S 24°04' W 046°23'8 7.0
2014-Oct-15 02:26S 23°58' W 046°18'0 0.0
2014-Oct-15 01:32S 23°58' W 046°18'0 0.0
2014-Oct-15 00:32S 23°58' W 046°18'0 0.0
2014-Oct-14 23:29S 23°58' W 046°18'0 0.0
2014-Oct-14 22:32S 23°58' W 046°18'0 0.0
2014-Oct-14 21:32S 23°58' W 046°18'0 0.0
2014-Oct-14 20:32S 23°58' W 046°18'0 0.0
2014-Oct-14 19:32S 23°58' W 046°18'0 0.0
2014-Oct-14 18:32S 23°58' W 046°18'0 0.0
2014-Oct-14 17:32S 23°58' W 046°18'0 0.0
2014-Oct-14 16:29S 23°58' W 046°18'0 0.0
2014-Oct-14 15:32S 23°58' W 046°18'0 0.0
2014-Oct-14 14:32S 23°58' W 046°18'0 0.0
2014-Oct-14 13:32S 23°58' W 046°18'0 0.0
2014-Oct-14 12:32S 23°58' W 046°18'0 0.0
2014-Oct-14 11:32S 23°58' W 046°18'0 0.0
2014-Oct-14 10:32S 23°58' W 046°18'0 0.0
2014-Oct-14 09:32S 23°58' W 046°18'0 0.0
2014-Oct-14 08:32S 23°58' W 046°18'0 0.0
2014-Oct-14 07:26S 23°58' W 046°18'0 0.0
2014-Oct-14 06:32S 23°58' W 046°18'0 0.0
2014-Oct-14 05:32S 23°58' W 046°18'0 0.0
2014-Oct-14 04:32S 23°58' W 046°18'0 0.0
2014-Oct-14 03:32S 23°58' W 046°18'0 0.3
2014-Oct-14 02:33S 23°58' W 046°18'8 7.9
2014-Oct-14 01:33S 24°05' W 046°22'232 7.0
2014-Oct-12 16:30S 27°32' W 048°17'1212.7
2014-Oct-12 15:33S 27°44' W 048°21'  
Track history (hours):
 
Tides and Currents Weather Stations Pressure Air Temp Water Temp Dewpoint Dewpoint Depression Visibility Wind Speed Wind Dir Waves Ship Positions

Cap Bianco

Last reported at 2014-Oct-20 16:17 UTC. Time now 2014-Oct-20 18:06 UTC.
Position S 34°45' W 057°37'.

Length 222 m; draft 9 m.

Type: Cargo ship. MMSI: 636091489.

Date/timePositionNaut miles runAvg speedWind from/ knotsBaromVisibWave heightAir tempDewpointWater temp
2014-Oct-20 16:17S 34°45' W 057°37'911.6
2014-Oct-20 15:28S 34°44' W 057°49'1011.5
2014-Oct-20 14:33S 34°40' W 058°00'18 0.4
2014-Oct-18 14:33S 34°32' W 058°20'1111.1
2014-Oct-18 13:33S 34°38' W 058°09'8 8.3
2014-Oct-18 12:33S 34°41' W 057°59'6 6.0
2014-Oct-18 11:33S 34°43' W 057°52'1212.2
2014-Oct-18 10:33S 34°38' W 058°06'1211.2
2014-Oct-18 09:29S 34°38' W 058°21'0 0.2
2014-Oct-18 08:23S 34°38' W 058°21'0 0.0
2014-Oct-18 05:20S 34°38' W 058°21'0 0.0
2014-Oct-18 04:11S 34°38' W 058°21'0 0.0
2014-Oct-18 03:23S 34°38' W 058°21'0 0.0
2014-Oct-18 02:32S 34°38' W 058°21'0 0.0
2014-Oct-18 01:29S 34°38' W 058°21'0 0.0
2014-Oct-18 00:29S 34°38' W 058°21'0 0.0
2014-Oct-17 23:32S 34°38' W 058°21'0 0.0
2014-Oct-17 22:26S 34°38' W 058°21'0 0.0
2014-Oct-17 21:32S 34°38' W 058°21'0 0.0
2014-Oct-17 20:29S 34°38' W 058°21'0 0.0
2014-Oct-17 19:32S 34°38' W 058°21'1 0.5
2014-Oct-17 18:23S 34°38' W 058°20'8 9.3
2014-Oct-17 17:33S 34°37' W 058°11'1313.4
2014-Oct-17 16:33S 34°42' W 057°56'1010.1
2014-Oct-17 15:33S 34°44' W 057°44'5412.0
2014-Oct-17 11:04S 35°10' W 056°46'62414.9
2014-Oct-15 17:10S 27°55' W 048°01'23718.3
2014-Oct-15 04:12S 24°14' W 046°27'1015.9
2014-Oct-15 03:34S 24°04' W 046°23'8 7.0
2014-Oct-15 02:26S 23°58' W 046°18'0 0.0
2014-Oct-15 01:32S 23°58' W 046°18'0 0.0
2014-Oct-15 00:32S 23°58' W 046°18'0 0.0
2014-Oct-14 23:29S 23°58' W 046°18'0 0.0
2014-Oct-14 22:32S 23°58' W 046°18'0 0.0
2014-Oct-14 21:32S 23°58' W 046°18'0 0.0
2014-Oct-14 20:32S 23°58' W 046°18'0 0.0
2014-Oct-14 19:32S 23°58' W 046°18'0 0.0
2014-Oct-14 18:32S 23°58' W 046°18'0 0.0
2014-Oct-14 17:32S 23°58' W 046°18'0 0.0
2014-Oct-14 16:29S 23°58' W 046°18'0 0.0
2014-Oct-14 15:32S 23°58' W 046°18'0 0.0
2014-Oct-14 14:32S 23°58' W 046°18'0 0.0
2014-Oct-14 13:32S 23°58' W 046°18'0 0.0
2014-Oct-14 12:32S 23°58' W 046°18'0 0.0
2014-Oct-14 11:32S 23°58' W 046°18'0 0.0
2014-Oct-14 10:32S 23°58' W 046°18'0 0.0
2014-Oct-14 09:32S 23°58' W 046°18'0 0.0
2014-Oct-14 08:32S 23°58' W 046°18'0 0.0
2014-Oct-14 07:26S 23°58' W 046°18'0 0.0
2014-Oct-14 06:32S 23°58' W 046°18'0 0.0
2014-Oct-14 05:32S 23°58' W 046°18'0 0.0
2014-Oct-14 04:32S 23°58' W 046°18'0 0.0
2014-Oct-14 03:32S 23°58' W 046°18'0 0.3
2014-Oct-14 02:33S 23°58' W 046°18'8 7.9
2014-Oct-14 01:33S 24°05' W 046°22'232 7.0
2014-Oct-12 16:30S 27°32' W 048°17'1212.7
2014-Oct-12 15:33S 27°44' W 048°21'  

Dump ship's entire track history